sensor_id;sensor_type;location;lat;lon;timestamp;pressure;altitude;pressure_sealevel;temperature;humidity
10014;BME280;45684;48.358;10.746;2023-10-09T00:00:07;96883.34;;;11.74;100.00
10014;BME280;45684;48.358;10.746;2023-10-09T00:02:59;96880.94;;;11.73;100.00
10014;BME280;45684;48.358;10.746;2023-10-09T00:05:28;96873.94;;;11.72;100.00
10014;BME280;45684;48.358;10.746;2023-10-09T00:08:05;96881.53;;;11.70;100.00
10014;BME280;45684;48.358;10.746;2023-10-09T00:10:36;96873.72;;;11.68;100.00
10014;BME280;45684;48.358;10.746;2023-10-09T00:13:13;96865.13;;;11.66;100.00
10014;BME280;45684;48.358;10.746;2023-10-09T00:15:42;96871.94;;;11.64;100.00
10014;BME280;45684;48.358;10.746;2023-10-09T00:18:10;96862.53;;;11.61;100.00
10014;BME280;45684;48.358;10.746;2023-10-09T00:20:39;96864.72;;;11.59;100.00
10014;BME280;45684;48.358;10.746;2023-10-09T00:23:09;96850.69;;;11.57;100.00
10014;BME280;45684;48.358;10.746;2023-10-09T00:25:48;96851.78;;;11.56;100.00
10014;BME280;45684;48.358;10.746;2023-10-09T00:28:39;96848.28;;;11.56;100.00
10014;BME280;45684;48.358;10.746;2023-10-09T00:31:10;96840.47;;;11.54;100.00
10014;BME280;45684;48.358;10.746;2023-10-09T00:33:42;96846.69;;;11.55;100.00
10014;BME280;45684;48.358;10.746;2023-10-09T00:36:10;96844.78;;;11.55;100.00
10014;BME280;45684;48.358;10.746;2023-10-09T00:38:43;96833.13;;;11.55;100.00
10014;BME280;45684;48.358;10.746;2023-10-09T00:41:15;96829.16;;;11.52;100.00
10014;BME280;45684;48.358;10.746;2023-10-09T00:43:48;96825.94;;;11.50;100.00
10014;BME280;45684;48.358;10.746;2023-10-09T00:46:18;96825.72;;;11.46;100.00
10014;BME280;45684;48.358;10.746;2023-10-09T00:48:53;96828.88;;;11.40;100.00
10014;BME280;45684;48.358;10.746;2023-10-09T00:51:22;96820.84;;;11.35;100.00
10014;BME280;45684;48.358;10.746;2023-10-09T00:53:54;96824.38;;;11.35;100.00
10014;BME280;45684;48.358;10.746;2023-10-09T00:56:25;96819.53;;;11.32;100.00
10014;BME280;45684;48.358;10.746;2023-10-09T00:59:08;96812.41;;;11.36;100.00
10014;BME280;45684;48.358;10.746;2023-10-09T01:01:41;96810.63;;;11.32;100.00
10014;BME280;45684;48.358;10.746;2023-10-09T01:04:23;96803.63;;;11.31;100.00
10014;BME280;45684;48.358;10.746;2023-10-09T01:06:54;96807.91;;;11.32;100.00
10014;BME280;45684;48.358;10.746;2023-10-09T01:09:35;96799.78;;;11.32;100.00
10014;BME280;45684;48.358;10.746;2023-10-09T01:12:05;96796.28;;;11.31;100.00
10014;BME280;45684;48.358;10.746;2023-10-09T01:14:56;96790.41;;;11.29;100.00
10014;BME280;45684;48.358;10.746;2023-10-09T01:17:26;96795.81;;;11.29;100.00
10014;BME280;45684;48.358;10.746;2023-10-09T01:20:04;96793.38;;;11.28;100.00
10014;BME280;45684;48.358;10.746;2023-10-09T01:22:42;96795.59;;;11.26;100.00
10014;BME280;45684;48.358;10.746;2023-10-09T01:25:12;96794.00;;;11.24;100.00
10014;BME280;45684;48.358;10.746;2023-10-09T01:27:40;96793.81;;;11.21;100.00
10014;BME280;45684;48.358;10.746;2023-10-09T01:30:11;96789.19;;;11.21;100.00
10014;BME280;45684;48.358;10.746;2023-10-09T01:32:40;96790.31;;;11.20;100.00
10014;BME280;45684;48.358;10.746;2023-10-09T01:35:10;96778.69;;;11.20;100.00
10014;BME280;45684;48.358;10.746;2023-10-09T01:37:48;96785.38;;;11.22;100.00
10014;BME280;45684;48.358;10.746;2023-10-09T01:40:19;96778.38;;;11.21;100.00
10014;BME280;45684;48.358;10.746;2023-10-09T01:42:53;96774.88;;;11.21;100.00
10014;BME280;45684;48.358;10.746;2023-10-09T01:45:23;96775.97;;;11.20;100.00
10014;BME280;45684;48.358;10.746;2023-10-09T01:47:54;96760.66;;;11.15;100.00
10014;BME280;45684;48.358;10.746;2023-10-09T01:50:23;96762.66;;;11.10;100.00
10014;BME280;45684;48.358;10.746;2023-10-09T01:52:57;96762.16;;;11.08;100.00
10014;BME280;45684;48.358;10.746;2023-10-09T01:55:29;96756.25;;;11.06;100.00
10014;BME280;45684;48.358;10.746;2023-10-09T01:58:01;96753.56;;;11.06;100.00
10014;BME280;45684;48.358;10.746;2023-10-09T02:00:32;96755.16;;;11.07;100.00
10014;BME280;45684;48.358;10.746;2023-10-09T02:03:08;96757.75;;;11.12;100.00
10014;BME280;45684;48.358;10.746;2023-10-09T02:05:41;96753.31;;;11.16;100.00
10014;BME280;45684;48.358;10.746;2023-10-09T02:08:09;96747.00;;;11.20;100.00
10014;BME280;45684;48.358;10.746;2023-10-09T02:10:39;96752.78;;;11.28;100.00
10014;BME280;45684;48.358;10.746;2023-10-09T02:13:11;96750.56;;;11.30;100.00
10014;BME280;45684;48.358;10.746;2023-10-09T02:15:40;96751.69;;;11.29;100.00
10014;BME280;45684;48.358;10.746;2023-10-09T02:18:14;96747.22;;;11.33;100.00
10014;BME280;45684;48.358;10.746;2023-10-09T02:20:46;96741.22;;;11.36;100.00
10014;BME280;45684;48.358;10.746;2023-10-09T02:23:14;96739.81;;;11.38;100.00
10014;BME280;45684;48.358;10.746;2023-10-09T02:25:45;96743.31;;;11.39;100.00
10014;BME280;45684;48.358;10.746;2023-10-09T02:28:13;96735.69;;;11.41;100.00
10014;BME280;45684;48.358;10.746;2023-10-09T02:30:45;96733.66;;;11.46;100.00
10014;BME280;45684;48.358;10.746;2023-10-09T02:33:14;96742.16;;;11.54;100.00
10014;BME280;45684;48.358;10.746;2023-10-09T02:35:47;96731.81;;;11.56;100.00
10014;BME280;45684;48.358;10.746;2023-10-09T02:38:18;96732.78;;;11.60;100.00
10014;BME280;45684;48.358;10.746;2023-10-09T02:40:51;96730.25;;;11.63;100.00
10014;BME280;45684;48.358;10.746;2023-10-09T02:43:44;96730.75;;;11.65;100.00
10014;BME280;45684;48.358;10.746;2023-10-09T02:46:13;96730.75;;;11.65;100.00
10014;BME280;45684;48.358;10.746;2023-10-09T02:48:44;96731.25;;;11.67;100.00
10014;BME280;45684;48.358;10.746;2023-10-09T02:51:18;96728.53;;;11.67;100.00
10014;BME280;45684;48.358;10.746;2023-10-09T02:54:00;96722.31;;;11.67;100.00
10014;BME280;45684;48.358;10.746;2023-10-09T02:56:36;96720.41;;;11.67;100.00
10014;BME280;45684;48.358;10.746;2023-10-09T02:59:09;96717.38;;;11.69;100.00
10014;BME280;45684;48.358;10.746;2023-10-09T03:01:39;96710.06;;;11.69;100.00
10014;BME280;45684;48.358;10.746;2023-10-09T03:04:07;96714.38;;;11.70;100.00
10014;BME280;45684;48.358;10.746;2023-10-09T03:06:38;96707.53;;;11.73;100.00
10014;BME280;45684;48.358;10.746;2023-10-09T03:09:10;96707.72;;;11.77;100.00
10014;BME280;45684;48.358;10.746;2023-10-09T03:11:49;96702.31;;;11.77;100.00
10014;BME280;45684;48.358;10.746;2023-10-09T03:14:20;96699.28;;;11.78;100.00
10014;BME280;45684;48.358;10.746;2023-10-09T03:16:51;96700.88;;;11.79;100.00
10014;BME280;45684;48.358;10.746;2023-10-09T03:19:19;96701.09;;;11.83;100.00
10014;BME280;45684;48.358;10.746;2023-10-09T03:21:47;96699.69;;;11.85;100.00
10014;BME280;45684;48.358;10.746;2023-10-09T03:24:15;96700.47;;;11.86;100.00
10014;BME280;45684;48.358;10.746;2023-10-09T03:26:43;96706.88;;;11.90;100.00
10014;BME280;45684;48.358;10.746;2023-10-09T03:29:13;96708.34;;;11.96;100.00
10014;BME280;45684;48.358;10.746;2023-10-09T03:31:41;96691.47;;;11.99;100.00
10014;BME280;45684;48.358;10.746;2023-10-09T03:34:10;96702.16;;;12.04;100.00
10014;BME280;45684;48.358;10.746;2023-10-09T03:36:38;96704.22;;;12.07;100.00
10014;BME280;45684;48.358;10.746;2023-10-09T03:39:06;96704.91;;;12.13;100.00
10014;BME280;45684;48.358;10.746;2023-10-09T03:41:51;96708.28;;;12.18;100.00
10014;BME280;45684;48.358;10.746;2023-10-09T03:44:22;96704.63;;;12.23;100.00
10014;BME280;45684;48.358;10.746;2023-10-09T03:46:50;96712.28;;;12.30;100.00
10014;BME280;45684;48.358;10.746;2023-10-09T03:49:18;96708.34;;;12.36;100.00
10014;BME280;45684;48.358;10.746;2023-10-09T03:51:50;96706.59;;;12.40;100.00
10014;BME280;45684;48.358;10.746;2023-10-09T03:54:18;96706.94;;;12.47;100.00
10014;BME280;45684;48.358;10.746;2023-10-09T03:56:47;96704.09;;;12.61;100.00
10014;BME280;45684;48.358;10.746;2023-10-09T03:59:16;96705.53;;;12.67;100.00
10014;BME280;45684;48.358;10.746;2023-10-09T04:01:48;96705.56;;;12.75;100.00
10014;BME280;45684;48.358;10.746;2023-10-09T04:04:19;96711.34;;;12.83;100.00
10014;BME280;45684;48.358;10.746;2023-10-09T04:06:50;96712.44;;;12.90;100.00
10014;BME280;45684;48.358;10.746;2023-10-09T04:09:19;96712.78;;;12.97;100.00
10014;BME280;45684;48.358;10.746;2023-10-09T04:12:02;96716.47;;;13.01;100.00
10014;BME280;45684;48.358;10.746;2023-10-09T04:14:52;96723.50;;;13.11;100.00
10014;BME280;45684;48.358;10.746;2023-10-09T04:17:26;96720.47;;;13.13;100.00
10014;BME280;45684;48.358;10.746;2023-10-09T04:20:01;96721.59;;;13.12;100.00
10014;BME280;45684;48.358;10.746;2023-10-09T04:22:47;96723.50;;;13.11;100.00
10014;BME280;45684;48.358;10.746;2023-10-09T04:25:19;96718.69;;;13.08;100.00
10014;BME280;45684;48.358;10.746;2023-10-09T04:27:53;96719.81;;;13.07;100.00
10014;BME280;45684;48.358;10.746;2023-10-09T04:30:36;96716.16;;;13.03;100.00
10014;BME280;45684;48.358;10.746;2023-10-09T04:33:09;96715.19;;;12.99;100.00
10014;BME280;45684;48.358;10.746;2023-10-09T04:35:55;96711.19;;;12.96;100.00
10014;BME280;45684;48.358;10.746;2023-10-09T04:38:40;96711.34;;;12.91;100.00
10014;BME280;45684;48.358;10.746;2023-10-09T04:41:19;96714.69;;;12.88;100.00
10014;BME280;45684;48.358;10.746;2023-10-09T04:43:54;96708.63;;;12.83;100.00
10014;BME280;45684;48.358;10.746;2023-10-09T04:46:30;96701.91;;;12.80;100.00
10014;BME280;45684;48.358;10.746;2023-10-09T04:49:11;96695.50;;;12.76;100.00
10014;BME280;45684;48.358;10.746;2023-10-09T04:51:54;96696.97;;;12.73;100.00
10014;BME280;45684;48.358;10.746;2023-10-09T04:54:32;96699.81;;;12.68;100.00
10014;BME280;45684;48.358;10.746;2023-10-09T04:57:26;96702.38;;;12.65;100.00
10014;BME280;45684;48.358;10.746;2023-10-09T04:59:56;96707.28;;;12.63;100.00
10014;BME280;45684;48.358;10.746;2023-10-09T05:02:25;96707.16;;;12.59;100.00
10014;BME280;45684;48.358;10.746;2023-10-09T05:05:05;96707.75;;;12.56;100.00
10014;BME280;45684;48.358;10.746;2023-10-09T05:08:03;96707.91;;;12.51;100.00
10014;BME280;45684;48.358;10.746;2023-10-09T05:10:45;96715.09;;;12.47;100.00
10014;BME280;45684;48.358;10.746;2023-10-09T05:13:33;96712.97;;;12.44;100.00
10014;BME280;45684;48.358;10.746;2023-10-09T05:16:12;96720.66;;;12.42;100.00
10014;BME280;45684;48.358;10.746;2023-10-09T05:18:45;96715.84;;;12.39;100.00
10014;BME280;45684;48.358;10.746;2023-10-09T05:21:26;96715.38;;;12.37;100.00
10014;BME280;45684;48.358;10.746;2023-10-09T05:24:12;96713.28;;;12.34;100.00
10014;BME280;45684;48.358;10.746;2023-10-09T05:26:47;96716.00;;;12.34;100.00
10014;BME280;45684;48.358;10.746;2023-10-09T05:29:41;96721.41;;;12.34;100.00
10014;BME280;45684;48.358;10.746;2023-10-09T05:32:25;96716.00;;;12.34;100.00
10014;BME280;45684;48.358;10.746;2023-10-09T05:35:01;96714.88;;;12.35;100.00
10014;BME280;45684;48.358;10.746;2023-10-09T05:37:35;96711.06;;;12.36;100.00
10014;BME280;45684;48.358;10.746;2023-10-09T05:40:10;96716.97;;;12.38;100.00
10014;BME280;45684;48.358;10.746;2023-10-09T05:42:49;96714.56;;;12.45;100.00
10014;BME280;45684;48.358;10.746;2023-10-09T05:45:29;96717.00;;;12.46;100.00
10014;BME280;45684;48.358;10.746;2023-10-09T05:48:17;96713.34;;;12.51;100.00
10014;BME280;45684;48.358;10.746;2023-10-09T05:51:02;96714.78;;;12.57;100.00
10014;BME280;45684;48.358;10.746;2023-10-09T05:54:08;96710.34;;;12.61;100.00
10014;BME280;45684;48.358;10.746;2023-10-09T05:57:10;96710.53;;;12.73;100.00
10014;BME280;45684;48.358;10.746;2023-10-09T05:59:54;96718.38;;;12.84;100.00
10014;BME280;45684;48.358;10.746;2023-10-09T06:02:42;96722.38;;;13.03;100.00
10014;BME280;45684;48.358;10.746;2023-10-09T06:05:42;96727.53;;;13.22;100.00
10014;BME280;45684;48.358;10.746;2023-10-09T06:08:30;96727.69;;;13.35;100.00
10014;BME280;45684;48.358;10.746;2023-10-09T06:11:14;96735.03;;;13.51;100.00
10014;BME280;45684;48.358;10.746;2023-10-09T06:13:57;96737.91;;;13.72;100.00
10014;BME280;45684;48.358;10.746;2023-10-09T06:16:30;96752.41;;;13.94;100.00
10014;BME280;45684;48.358;10.746;2023-10-09T06:19:09;96749.31;;;14.13;100.00
10014;BME280;45684;48.358;10.746;2023-10-09T06:21:39;96758.88;;;14.27;100.00
10014;BME280;45684;48.358;10.746;2023-10-09T06:24:23;96757.41;;;14.39;100.00
10014;BME280;45684;48.358;10.746;2023-10-09T06:26:54;96766.66;;;14.46;100.00
10014;BME280;45684;48.358;10.746;2023-10-09T06:29:39;96761.69;;;14.57;100.00
10014;BME280;45684;48.358;10.746;2023-10-09T06:32:18;96761.50;;;14.62;100.00
10014;BME280;45684;48.358;10.746;2023-10-09T06:35:05;96763.22;;;14.67;100.00
10014;BME280;45684;48.358;10.746;2023-10-09T06:37:49;96761.13;;;14.72;100.00
10014;BME280;45684;48.358;10.746;2023-10-09T06:40:36;96764.13;;;14.79;100.00
10014;BME280;45684;48.358;10.746;2023-10-09T06:43:24;96763.59;;;14.86;100.00
10014;BME280;45684;48.358;10.746;2023-10-09T06:45:56;96772.38;;;14.92;100.00
10014;BME280;45684;48.358;10.746;2023-10-09T06:48:46;96768.81;;;15.00;100.00
10014;BME280;45684;48.358;10.746;2023-10-09T06:51:22;96759.16;;;15.11;100.00
10014;BME280;45684;48.358;10.746;2023-10-09T06:54:08;96768.97;;;15.24;100.00
10014;BME280;45684;48.358;10.746;2023-10-09T06:56:37;96766.34;;;15.37;100.00
10014;BME280;45684;48.358;10.746;2023-10-09T06:59:20;96774.09;;;15.47;100.00
10014;BME280;45684;48.358;10.746;2023-10-09T07:01:50;96777.56;;;15.56;100.00
10014;BME280;45684;48.358;10.746;2023-10-09T07:04:36;96782.63;;;15.66;100.00
10014;BME280;45684;48.358;10.746;2023-10-09T07:07:21;96788.88;;;15.88;100.00
10014;BME280;45684;48.358;10.746;2023-10-09T07:09:52;96795.09;;;16.09;100.00
10014;BME280;45684;48.358;10.746;2023-10-09T07:12:37;96793.59;;;16.32;100.00
10014;BME280;45684;48.358;10.746;2023-10-09T07:15:20;96797.94;;;16.58;100.00
10014;BME280;45684;48.358;10.746;2023-10-09T07:18:06;96803.34;;;16.79;100.00
10014;BME280;45684;48.358;10.746;2023-10-09T07:20:46;96806.41;;;17.02;100.00
10014;BME280;45684;48.358;10.746;2023-10-09T07:23:26;96800.28;;;17.17;100.00
10014;BME280;45684;48.358;10.746;2023-10-09T07:26:03;96798.75;;;17.32;100.00
10014;BME280;45684;48.358;10.746;2023-10-09T07:28:50;96798.97;;;17.39;100.00
10014;BME280;45684;48.358;10.746;2023-10-09T07:31:28;96798.03;;;17.47;100.00
10014;BME280;45684;48.358;10.746;2023-10-09T07:34:06;96798.59;;;17.53;100.00
10014;BME280;45684;48.358;10.746;2023-10-09T07:36:55;96807.84;;;17.48;100.00
10014;BME280;45684;48.358;10.746;2023-10-09T07:39:23;96799.50;;;17.57;100.00
10014;BME280;45684;48.358;10.746;2023-10-09T07:42:04;96808.97;;;17.59;100.00
10014;BME280;45684;48.358;10.746;2023-10-09T07:44:46;96806.09;;;17.68;100.00
10014;BME280;45684;48.358;10.746;2023-10-09T07:47:21;96800.41;;;17.73;100.00
10014;BME280;45684;48.358;10.746;2023-10-09T07:50:00;96815.91;;;17.81;100.00
10014;BME280;45684;48.358;10.746;2023-10-09T07:52:30;96810.88;;;17.83;100.00
10014;BME280;45684;48.358;10.746;2023-10-09T07:54:58;96821.56;;;17.89;100.00
10014;BME280;45684;48.358;10.746;2023-10-09T07:57:33;96820.53;;;17.93;100.00
10014;BME280;45684;48.358;10.746;2023-10-09T08:00:09;96824.59;;;17.99;100.00
10014;BME280;45684;48.358;10.746;2023-10-09T08:03:03;96828.22;;;18.03;100.00
10014;BME280;45684;48.358;10.746;2023-10-09T08:05:50;96818.06;;;18.04;100.00
10014;BME280;45684;48.358;10.746;2023-10-09T08:08:20;96828.59;;;18.02;100.00
10014;BME280;45684;48.358;10.746;2023-10-09T08:11:07;96827.09;;;18.04;100.00
10014;BME280;45684;48.358;10.746;2023-10-09T08:14:01;96828.78;;;18.09;100.00
10014;BME280;45684;48.358;10.746;2023-10-09T08:16:30;96820.91;;;18.07;100.00
10014;BME280;45684;48.358;10.746;2023-10-09T08:19:09;96817.50;;;18.10;100.00
10014;BME280;45684;48.358;10.746;2023-10-09T08:21:59;96817.59;;;18.14;100.00
10014;BME280;45684;48.358;10.746;2023-10-09T08:24:44;96815.28;;;18.16;100.00
10014;BME280;45684;48.358;10.746;2023-10-09T08:27:22;96817.78;;;18.21;100.00
10014;BME280;45684;48.358;10.746;2023-10-09T08:30:13;96815.50;;;18.23;100.00
10014;BME280;45684;48.358;10.746;2023-10-09T08:32:55;96815.69;;;18.30;100.00
10014;BME280;45684;48.358;10.746;2023-10-09T08:35:35;96817.00;;;18.36;100.00
10014;BME280;45684;48.358;10.746;2023-10-09T08:38:14;96822.22;;;18.42;100.00
10014;BME280;45684;48.358;10.746;2023-10-09T08:40:44;96827.47;;;18.47;100.00
10014;BME280;45684;48.358;10.746;2023-10-09T08:43:14;96826.44;;;18.51;100.00
10014;BME280;45684;48.358;10.746;2023-10-09T08:45:45;96824.47;;;18.52;100.00
10014;BME280;45684;48.358;10.746;2023-10-09T08:48:14;96828.19;;;18.59;100.00
10014;BME280;45684;48.358;10.746;2023-10-09T08:50:45;96830.31;;;18.66;100.00
10014;BME280;45684;48.358;10.746;2023-10-09T08:53:16;96827.00;;;18.73;100.00
10014;BME280;45684;48.358;10.746;2023-10-09T08:55:44;96828.78;;;18.81;100.00
10014;BME280;45684;48.358;10.746;2023-10-09T08:58:14;96832.50;;;18.89;100.00
10014;BME280;45684;48.358;10.746;2023-10-09T09:00:45;96829.13;;;18.95;100.00
10014;BME280;45684;48.358;10.746;2023-10-09T09:03:15;96831.97;;;18.99;100.00
10014;BME280;45684;48.358;10.746;2023-10-09T09:05:47;96839.66;;;19.09;100.00
10014;BME280;45684;48.358;10.746;2023-10-09T09:08:22;96841.56;;;19.24;100.00
10014;BME280;45684;48.358;10.746;2023-10-09T09:10:58;96841.66;;;19.28;100.00
10014;BME280;45684;48.358;10.746;2023-10-09T09:13:42;96850.13;;;19.38;100.00
10014;BME280;45684;48.358;10.746;2023-10-09T09:16:16;96844.44;;;19.47;100.00
10014;BME280;45684;48.358;10.746;2023-10-09T09:18:52;96840.34;;;19.57;100.00
10014;BME280;45684;48.358;10.746;2023-10-09T09:21:32;96843.03;;;19.69;100.00
10014;BME280;45684;48.358;10.746;2023-10-09T09:24:07;96845.91;;;19.76;100.00
10014;BME280;45684;48.358;10.746;2023-10-09T09:26:54;96844.28;;;19.91;100.00
10014;BME280;45684;48.358;10.746;2023-10-09T09:29:39;96840.88;;;19.98;100.00
10014;BME280;45684;48.358;10.746;2023-10-09T09:32:09;96849.53;;;20.00;100.00
10014;BME280;45684;48.358;10.746;2023-10-09T09:34:44;96837.75;;;19.99;100.00
10014;BME280;45684;48.358;10.746;2023-10-09T09:37:23;96848.47;;;20.04;100.00
10014;BME280;45684;48.358;10.746;2023-10-09T09:39:57;96840.66;;;20.06;100.00
10014;BME280;45684;48.358;10.746;2023-10-09T09:42:28;96841.53;;;20.10;100.00
10014;BME280;45684;48.358;10.746;2023-10-09T09:45:00;96841.31;;;20.19;100.00
10014;BME280;45684;48.358;10.746;2023-10-09T09:47:30;96847.94;;;20.18;100.00
10014;BME280;45684;48.358;10.746;2023-10-09T09:50:05;96840.16;;;20.20;100.00
10014;BME280;45684;48.358;10.746;2023-10-09T09:52:40;96844.56;;;20.25;100.00
10014;BME280;45684;48.358;10.746;2023-10-09T09:55:10;96839.13;;;20.28;99.59
10014;BME280;45684;48.358;10.746;2023-10-09T09:57:44;96840.94;;;20.40;98.53
10014;BME280;45684;48.358;10.746;2023-10-09T10:00:13;96852.16;;;20.51;99.19
10014;BME280;45684;48.358;10.746;2023-10-09T10:02:57;96849.84;;;20.53;97.45
10014;BME280;45684;48.358;10.746;2023-10-09T10:05:28;96853.50;;;20.60;96.88
10014;BME280;45684;48.358;10.746;2023-10-09T10:07:59;96849.66;;;20.65;96.04
10014;BME280;45684;48.358;10.746;2023-10-09T10:10:35;96858.84;;;20.73;94.78
10014;BME280;45684;48.358;10.746;2023-10-09T10:13:05;96855.00;;;20.77;95.56
10014;BME280;45684;48.358;10.746;2023-10-09T10:16:01;96846.69;;;20.97;92.75
10014;BME280;45684;48.358;10.746;2023-10-09T10:18:57;96851.47;;;21.00;91.86
10014;BME280;45684;48.358;10.746;2023-10-09T10:21:48;96851.63;;;21.10;92.02
10014;BME280;45684;48.358;10.746;2023-10-09T10:24:42;96847.53;;;21.24;89.34
10014;BME280;45684;48.358;10.746;2023-10-09T10:27:20;96845.75;;;21.35;89.50
10014;BME280;45684;48.358;10.746;2023-10-09T10:30:27;96844.78;;;21.47;88.90
10014;BME280;45684;48.358;10.746;2023-10-09T10:33:01;96852.72;;;21.52;88.29
10014;BME280;45684;48.358;10.746;2023-10-09T10:35:43;96847.72;;;21.61;87.79
10014;BME280;45684;48.358;10.746;2023-10-09T10:38:23;96847.78;;;21.64;85.88
10014;BME280;45684;48.358;10.746;2023-10-09T10:40:53;96850.34;;;21.80;87.06
10014;BME280;45684;48.358;10.746;2023-10-09T10:43:26;96847.53;;;21.73;86.27
10014;BME280;45684;48.358;10.746;2023-10-09T10:46:15;96841.69;;;21.78;85.75
10014;BME280;45684;48.358;10.746;2023-10-09T10:48:59;96836.53;;;21.77;86.09
10014;BME280;45684;48.358;10.746;2023-10-09T10:51:37;96834.75;;;21.91;86.74
10014;BME280;45684;48.358;10.746;2023-10-09T10:54:07;96840.88;;;22.08;87.16
10014;BME280;45684;48.358;10.746;2023-10-09T10:56:53;96836.06;;;22.31;86.22
10014;BME280;45684;48.358;10.746;2023-10-09T10:59:24;96848.81;;;22.43;83.34
10014;BME280;45684;48.358;10.746;2023-10-09T11:01:56;96841.34;;;22.47;79.93
10014;BME280;45684;48.358;10.746;2023-10-09T11:04:27;96836.56;;;22.40;79.26
10014;BME280;45684;48.358;10.746;2023-10-09T11:07:08;96839.22;;;22.33;81.32
10014;BME280;45684;48.358;10.746;2023-10-09T11:09:46;96835.28;;;22.31;84.33
10014;BME280;45684;48.358;10.746;2023-10-09T11:12:44;96837.09;;;22.16;81.77
10014;BME280;45684;48.358;10.746;2023-10-09T11:15:34;96839.41;;;22.14;83.63
10014;BME280;45684;48.358;10.746;2023-10-09T11:18:13;96837.34;;;22.07;85.66
10014;BME280;45684;48.358;10.746;2023-10-09T11:20:49;96831.44;;;22.09;85.77
10014;BME280;45684;48.358;10.746;2023-10-09T11:23:41;96818.47;;;22.09;83.33
10014;BME280;45684;48.358;10.746;2023-10-09T11:26:20;96815.03;;;22.16;82.65
10014;BME280;45684;48.358;10.746;2023-10-09T11:29:10;96811.56;;;22.23;82.95
10014;BME280;45684;48.358;10.746;2023-10-09T11:31:42;96820.63;;;22.23;83.38
10014;BME280;45684;48.358;10.746;2023-10-09T11:34:24;96825.47;;;22.03;82.97
10014;BME280;45684;48.358;10.746;2023-10-09T11:36:59;96819.91;;;22.00;84.45
10014;BME280;45684;48.358;10.746;2023-10-09T11:39:29;96817.03;;;21.89;88.76
10014;BME280;45684;48.358;10.746;2023-10-09T11:42:06;96813.44;;;21.85;87.21
10014;BME280;45684;48.358;10.746;2023-10-09T11:44:45;96816.84;;;21.75;88.36
10014;BME280;45684;48.358;10.746;2023-10-09T11:47:21;96809.38;;;21.75;89.06
10014;BME280;45684;48.358;10.746;2023-10-09T11:49:52;96807.78;;;21.74;89.76
10014;BME280;45684;48.358;10.746;2023-10-09T11:52:56;96808.97;;;21.73;89.97
10014;BME280;45684;48.358;10.746;2023-10-09T11:55:36;96803.03;;;21.71;91.84
10014;BME280;45684;48.358;10.746;2023-10-09T11:58:04;96798.78;;;21.77;91.98
10014;BME280;45684;48.358;10.746;2023-10-09T12:00:35;96792.84;;;21.75;90.82
10014;BME280;45684;48.358;10.746;2023-10-09T12:03:12;96792.44;;;21.73;88.74
10014;BME280;45684;48.358;10.746;2023-10-09T12:05:41;96792.81;;;21.72;89.24
10014;BME280;45684;48.358;10.746;2023-10-09T12:08:12;96788.00;;;21.65;92.07
10014;BME280;45684;48.358;10.746;2023-10-09T12:10:42;96796.16;;;21.58;90.85
10014;BME280;45684;48.358;10.746;2023-10-09T12:13:10;96804.97;;;21.41;92.26
10014;BME280;45684;48.358;10.746;2023-10-09T12:15:39;96804.78;;;21.30;94.29
10014;BME280;45684;48.358;10.746;2023-10-09T12:18:07;96812.50;;;21.21;94.92
10014;BME280;45684;48.358;10.746;2023-10-09T12:20:42;96804.09;;;21.10;96.70
10014;BME280;45684;48.358;10.746;2023-10-09T12:23:16;96807.88;;;21.02;97.90
10014;BME280;45684;48.358;10.746;2023-10-09T12:25:44;96806.28;;;21.01;100.00
10014;BME280;45684;48.358;10.746;2023-10-09T12:28:12;96801.66;;;21.05;100.00
10014;BME280;45684;48.358;10.746;2023-10-09T12:30:41;96802.91;;;21.11;98.69
10014;BME280;45684;48.358;10.746;2023-10-09T12:33:10;96808.09;;;21.16;97.80
10014;BME280;45684;48.358;10.746;2023-10-09T12:35:39;96809.75;;;21.21;98.50
10014;BME280;45684;48.358;10.746;2023-10-09T12:38:07;96802.72;;;21.23;99.00
10014;BME280;45684;48.358;10.746;2023-10-09T12:40:38;96806.25;;;21.24;100.00
10014;BME280;45684;48.358;10.746;2023-10-09T12:43:09;96803.91;;;21.26;99.75
10014;BME280;45684;48.358;10.746;2023-10-09T12:45:43;96802.50;;;21.32;100.00
10014;BME280;45684;48.358;10.746;2023-10-09T12:48:11;96806.88;;;21.36;100.00
10014;BME280;45684;48.358;10.746;2023-10-09T12:50:41;96807.41;;;21.46;99.88
10014;BME280;45684;48.358;10.746;2023-10-09T12:53:11;96808.25;;;21.50;99.03
10014;BME280;45684;48.358;10.746;2023-10-09T12:55:44;96805.78;;;21.45;98.83
10014;BME280;45684;48.358;10.746;2023-10-09T12:58:12;96804.97;;;21.41;99.82
10014;BME280;45684;48.358;10.746;2023-10-09T13:00:43;96804.44;;;21.31;98.67
10014;BME280;45684;48.358;10.746;2023-10-09T13:03:16;96802.25;;;21.18;98.23
10014;BME280;45684;48.358;10.746;2023-10-09T13:05:45;96797.31;;;21.04;98.46
10014;BME280;45684;48.358;10.746;2023-10-09T13:08:22;96792.72;;;20.88;97.63
10014;BME280;45684;48.358;10.746;2023-10-09T13:13:28;96785.06;;;20.52;100.00
10014;BME280;45684;48.358;10.746;2023-10-09T13:16:09;96775.72;;;20.37;100.00
10014;BME280;45684;48.358;10.746;2023-10-09T13:18:40;96781.31;;;20.21;100.00
10014;BME280;45684;48.358;10.746;2023-10-09T13:21:17;96770.13;;;20.10;100.00
10014;BME280;45684;48.358;10.746;2023-10-09T13:23:45;96760.28;;;20.09;100.00
10014;BME280;45684;48.358;10.746;2023-10-09T13:26:16;96755.16;;;20.08;100.00
10014;BME280;45684;48.358;10.746;2023-10-09T13:29:00;96767.50;;;20.18;100.00
10014;BME280;45684;48.358;10.746;2023-10-09T13:31:32;96762.47;;;20.20;100.00